YPLE weather

CLOSED Plenty Airport
Melbourne, Victoria, Australia

Public forecast

Using degrees Celsius for public forecast. Weather courtesy of forecast.io.

METAR (pilot weather report)

Closest report is Melbourne Essendon Airport, 10.0 nm (18.6 km) W. Retrieved 2019/03/25 05:30 UTC (0 seconds ago):

YMEN 250530Z AUTO 28019G29KT 9999 // SCT060 19/02 Q1009

TAF (pilot weather forecast)

Forecast is more than 12 hours old.

Closest forecast is Melbourne International Airport, 13.2 nm (24.4 km) WNW. Retrieved 2019/03/24 00:00 UTC (1 day ago):

TAF YMML 242313Z 2500/2606 28020G34KT 9999 -SHRA NSC BECMG 2509/2511 29012KT CAVOK FM252300 25014KT 9999 SCT045